sensor_id;sensor_type;location;lat;lon;timestamp;temperature;humidity
58993;DHT22;44782;0.000;0.000;2024-02-26T00:01:11;18.90;55.70
58993;DHT22;44782;0.000;0.000;2024-02-26T00:03:27;18.90;55.70
58993;DHT22;44782;0.000;0.000;2024-02-26T00:05:43;18.90;55.70
58993;DHT22;44782;0.000;0.000;2024-02-26T00:07:58;18.90;56.00
58993;DHT22;44782;0.000;0.000;2024-02-26T00:10:14;18.90;56.00
58993;DHT22;44782;0.000;0.000;2024-02-26T00:12:30;18.90;55.90
58993;DHT22;44782;0.000;0.000;2024-02-26T00:14:46;18.80;55.90
58993;DHT22;44782;0.000;0.000;2024-02-26T00:17:02;18.80;56.00
58993;DHT22;44782;0.000;0.000;2024-02-26T00:19:18;18.80;55.80
58993;DHT22;44782;0.000;0.000;2024-02-26T00:21:33;18.80;55.90
58993;DHT22;44782;0.000;0.000;2024-02-26T00:23:50;18.80;55.80
58993;DHT22;44782;0.000;0.000;2024-02-26T00:26:08;18.80;55.70
58993;DHT22;44782;0.000;0.000;2024-02-26T00:28:26;18.80;55.60
58993;DHT22;44782;0.000;0.000;2024-02-26T00:30:45;18.70;55.40
58993;DHT22;44782;0.000;0.000;2024-02-26T00:33:01;18.80;55.20
58993;DHT22;44782;0.000;0.000;2024-02-26T00:35:17;18.70;55.30
58993;DHT22;44782;0.000;0.000;2024-02-26T00:37:35;18.70;55.00
58993;DHT22;44782;0.000;0.000;2024-02-26T00:39:51;18.70;55.20
58993;DHT22;44782;0.000;0.000;2024-02-26T00:42:08;18.70;55.10
58993;DHT22;44782;0.000;0.000;2024-02-26T00:44:24;18.70;55.90
58993;DHT22;44782;0.000;0.000;2024-02-26T00:46:40;18.60;54.80
58993;DHT22;44782;0.000;0.000;2024-02-26T00:48:55;18.60;55.00
58993;DHT22;44782;0.000;0.000;2024-02-26T00:51:11;18.60;55.00
58993;DHT22;44782;0.000;0.000;2024-02-26T00:53:26;18.60;55.00
58993;DHT22;44782;0.000;0.000;2024-02-26T00:55:44;18.60;54.90
58993;DHT22;44782;0.000;0.000;2024-02-26T00:57:59;18.60;55.00
58993;DHT22;44782;0.000;0.000;2024-02-26T01:00:15;18.50;54.80
58993;DHT22;44782;0.000;0.000;2024-02-26T01:02:31;18.50;54.90
58993;DHT22;44782;0.000;0.000;2024-02-26T01:04:47;18.50;54.80
58993;DHT22;44782;0.000;0.000;2024-02-26T01:07:03;18.50;54.90
58993;DHT22;44782;0.000;0.000;2024-02-26T01:09:18;18.50;54.80
58993;DHT22;44782;0.000;0.000;2024-02-26T01:11:34;18.50;54.80
58993;DHT22;44782;0.000;0.000;2024-02-26T01:13:50;18.50;54.90
58993;DHT22;44782;0.000;0.000;2024-02-26T01:16:08;18.40;54.70
58993;DHT22;44782;0.000;0.000;2024-02-26T01:18:24;18.40;54.80
58993;DHT22;44782;0.000;0.000;2024-02-26T01:20:40;18.50;54.80
58993;DHT22;44782;0.000;0.000;2024-02-26T01:22:55;18.40;54.70
58993;DHT22;44782;0.000;0.000;2024-02-26T01:25:12;18.40;54.70
58993;DHT22;44782;0.000;0.000;2024-02-26T01:27:28;18.40;54.70
58993;DHT22;44782;0.000;0.000;2024-02-26T01:29:44;18.40;54.70
58993;DHT22;44782;0.000;0.000;2024-02-26T01:32:01;18.40;54.90
58993;DHT22;44782;0.000;0.000;2024-02-26T01:34:18;18.40;55.00
58993;DHT22;44782;0.000;0.000;2024-02-26T01:36:33;18.40;54.90
58993;DHT22;44782;0.000;0.000;2024-02-26T01:38:49;18.30;55.00
58993;DHT22;44782;0.000;0.000;2024-02-26T01:41:05;18.30;55.00
58993;DHT22;44782;0.000;0.000;2024-02-26T01:43:22;18.30;55.00
58993;DHT22;44782;0.000;0.000;2024-02-26T01:45:37;18.30;55.10
58993;DHT22;44782;0.000;0.000;2024-02-26T01:47:54;18.30;55.10
58993;DHT22;44782;0.000;0.000;2024-02-26T01:50:10;18.30;55.10
58993;DHT22;44782;0.000;0.000;2024-02-26T01:52:26;18.30;55.10
58993;DHT22;44782;0.000;0.000;2024-02-26T01:54:42;18.30;55.20
58993;DHT22;44782;0.000;0.000;2024-02-26T01:56:59;18.30;55.20
58993;DHT22;44782;0.000;0.000;2024-02-26T01:59:15;18.20;55.20
58993;DHT22;44782;0.000;0.000;2024-02-26T02:01:32;18.20;55.30
58993;DHT22;44782;0.000;0.000;2024-02-26T02:03:48;18.30;55.30
58993;DHT22;44782;0.000;0.000;2024-02-26T02:06:04;18.20;55.20
58993;DHT22;44782;0.000;0.000;2024-02-26T02:08:22;18.20;55.40
58993;DHT22;44782;0.000;0.000;2024-02-26T02:10:38;18.20;55.20
58993;DHT22;44782;0.000;0.000;2024-02-26T02:12:54;18.20;55.30
58993;DHT22;44782;0.000;0.000;2024-02-26T02:15:09;18.20;55.30
58993;DHT22;44782;0.000;0.000;2024-02-26T02:17:25;18.20;55.30
58993;DHT22;44782;0.000;0.000;2024-02-26T02:19:45;18.20;55.30
58993;DHT22;44782;0.000;0.000;2024-02-26T02:22:00;18.10;55.20
58993;DHT22;44782;0.000;0.000;2024-02-26T02:24:16;18.10;55.10
58993;DHT22;44782;0.000;0.000;2024-02-26T02:26:31;18.10;55.30
58993;DHT22;44782;0.000;0.000;2024-02-26T02:28:48;18.10;55.20
58993;DHT22;44782;0.000;0.000;2024-02-26T02:31:04;18.10;55.30
58993;DHT22;44782;0.000;0.000;2024-02-26T02:33:21;18.10;55.30
58993;DHT22;44782;0.000;0.000;2024-02-26T02:35:36;18.10;55.40
58993;DHT22;44782;0.000;0.000;2024-02-26T02:37:53;18.10;55.40
58993;DHT22;44782;0.000;0.000;2024-02-26T02:40:09;18.10;55.40
58993;DHT22;44782;0.000;0.000;2024-02-26T02:42:24;18.10;55.40
58993;DHT22;44782;0.000;0.000;2024-02-26T02:44:40;18.00;55.30
58993;DHT22;44782;0.000;0.000;2024-02-26T02:46:56;18.10;55.40
58993;DHT22;44782;0.000;0.000;2024-02-26T02:49:11;18.00;55.40
58993;DHT22;44782;0.000;0.000;2024-02-26T02:51:27;18.00;55.40
58993;DHT22;44782;0.000;0.000;2024-02-26T02:53:42;18.00;55.40
58993;DHT22;44782;0.000;0.000;2024-02-26T02:55:58;18.00;55.40
58993;DHT22;44782;0.000;0.000;2024-02-26T02:58:14;18.00;55.40
58993;DHT22;44782;0.000;0.000;2024-02-26T03:00:29;18.00;55.40
58993;DHT22;44782;0.000;0.000;2024-02-26T03:02:45;18.00;55.40
58993;DHT22;44782;0.000;0.000;2024-02-26T03:05:05;18.00;55.30
58993;DHT22;44782;0.000;0.000;2024-02-26T03:07:20;18.00;55.30
58993;DHT22;44782;0.000;0.000;2024-02-26T03:09:36;18.00;55.50
58993;DHT22;44782;0.000;0.000;2024-02-26T03:11:52;18.00;55.50
58993;DHT22;44782;0.000;0.000;2024-02-26T03:14:07;18.00;55.50
58993;DHT22;44782;0.000;0.000;2024-02-26T03:16:24;18.00;56.10
58993;DHT22;44782;0.000;0.000;2024-02-26T03:18:40;18.00;55.50
58993;DHT22;44782;0.000;0.000;2024-02-26T03:20:55;17.90;55.40
58993;DHT22;44782;0.000;0.000;2024-02-26T03:23:11;17.90;55.50
58993;DHT22;44782;0.000;0.000;2024-02-26T03:25:30;17.90;55.50
58993;DHT22;44782;0.000;0.000;2024-02-26T03:27:45;17.90;55.50
58993;DHT22;44782;0.000;0.000;2024-02-26T03:30:01;17.90;55.60
58993;DHT22;44782;0.000;0.000;2024-02-26T03:32:18;17.90;55.50
58993;DHT22;44782;0.000;0.000;2024-02-26T03:34:33;17.90;55.50
58993;DHT22;44782;0.000;0.000;2024-02-26T03:36:54;17.90;55.50
58993;DHT22;44782;0.000;0.000;2024-02-26T03:39:10;17.90;55.60
58993;DHT22;44782;0.000;0.000;2024-02-26T03:41:26;17.90;55.60
58993;DHT22;44782;0.000;0.000;2024-02-26T03:43:41;17.90;55.60
58993;DHT22;44782;0.000;0.000;2024-02-26T03:45:57;17.90;55.60
58993;DHT22;44782;0.000;0.000;2024-02-26T03:48:13;17.90;55.70
58993;DHT22;44782;0.000;0.000;2024-02-26T03:50:29;17.90;55.70
58993;DHT22;44782;0.000;0.000;2024-02-26T03:52:44;17.80;55.70
58993;DHT22;44782;0.000;0.000;2024-02-26T03:55:00;17.90;55.60
58993;DHT22;44782;0.000;0.000;2024-02-26T03:57:16;17.90;55.60
58993;DHT22;44782;0.000;0.000;2024-02-26T03:59:31;18.00;55.70
58993;DHT22;44782;0.000;0.000;2024-02-26T04:01:47;18.10;55.70
58993;DHT22;44782;0.000;0.000;2024-02-26T04:04:03;18.20;55.80
58993;DHT22;44782;0.000;0.000;2024-02-26T04:06:18;18.30;55.70
58993;DHT22;44782;0.000;0.000;2024-02-26T04:08:36;18.30;55.60
58993;DHT22;44782;0.000;0.000;2024-02-26T04:10:53;18.50;55.50
58993;DHT22;44782;0.000;0.000;2024-02-26T04:13:08;18.60;55.40
58993;DHT22;44782;0.000;0.000;2024-02-26T04:15:24;18.70;55.30
58993;DHT22;44782;0.000;0.000;2024-02-26T04:17:40;18.80;55.20
58993;DHT22;44782;0.000;0.000;2024-02-26T04:19:56;18.90;55.00
58993;DHT22;44782;0.000;0.000;2024-02-26T04:22:11;19.10;54.90
58993;DHT22;44782;0.000;0.000;2024-02-26T04:24:27;19.20;54.80
58993;DHT22;44782;0.000;0.000;2024-02-26T04:26:43;19.30;54.60
58993;DHT22;44782;0.000;0.000;2024-02-26T04:28:58;19.40;54.60
58993;DHT22;44782;0.000;0.000;2024-02-26T04:31:14;19.50;54.40
58993;DHT22;44782;0.000;0.000;2024-02-26T04:33:30;19.60;54.30
58993;DHT22;44782;0.000;0.000;2024-02-26T04:35:45;19.70;54.10
58993;DHT22;44782;0.000;0.000;2024-02-26T04:38:01;19.80;54.00
58993;DHT22;44782;0.000;0.000;2024-02-26T04:40:16;19.90;53.90
58993;DHT22;44782;0.000;0.000;2024-02-26T04:42:32;20.00;53.80
58993;DHT22;44782;0.000;0.000;2024-02-26T04:44:48;20.10;53.70
58993;DHT22;44782;0.000;0.000;2024-02-26T04:47:03;20.20;53.50
58993;DHT22;44782;0.000;0.000;2024-02-26T04:49:19;20.30;53.40
58993;DHT22;44782;0.000;0.000;2024-02-26T04:51:34;20.40;53.40
58993;DHT22;44782;0.000;0.000;2024-02-26T04:53:50;20.50;53.20
58993;DHT22;44782;0.000;0.000;2024-02-26T04:56:06;20.50;53.00
58993;DHT22;44782;0.000;0.000;2024-02-26T04:58:21;20.60;52.90
58993;DHT22;44782;0.000;0.000;2024-02-26T05:00:37;20.60;52.80
58993;DHT22;44782;0.000;0.000;2024-02-26T05:02:53;20.60;52.70
58993;DHT22;44782;0.000;0.000;2024-02-26T05:05:08;20.60;52.70
58993;DHT22;44782;0.000;0.000;2024-02-26T05:07:24;20.60;52.70
58993;DHT22;44782;0.000;0.000;2024-02-26T05:09:40;20.50;52.70
58993;DHT22;44782;0.000;0.000;2024-02-26T05:11:57;20.50;52.70
58993;DHT22;44782;0.000;0.000;2024-02-26T05:14:12;20.50;52.80
58993;DHT22;44782;0.000;0.000;2024-02-26T05:16:28;20.50;52.80
58993;DHT22;44782;0.000;0.000;2024-02-26T05:18:45;20.40;52.80
58993;DHT22;44782;0.000;0.000;2024-02-26T05:21:01;20.40;52.80
58993;DHT22;44782;0.000;0.000;2024-02-26T05:23:18;20.40;52.80
58993;DHT22;44782;0.000;0.000;2024-02-26T05:25:34;20.40;52.90
58993;DHT22;44782;0.000;0.000;2024-02-26T05:27:50;20.30;52.80
58993;DHT22;44782;0.000;0.000;2024-02-26T05:30:06;20.30;52.80
58993;DHT22;44782;0.000;0.000;2024-02-26T05:32:22;20.30;52.80
58993;DHT22;44782;0.000;0.000;2024-02-26T05:34:37;20.20;52.80
58993;DHT22;44782;0.000;0.000;2024-02-26T05:36:53;20.20;52.80
58993;DHT22;44782;0.000;0.000;2024-02-26T05:39:09;20.20;52.70
58993;DHT22;44782;0.000;0.000;2024-02-26T05:41:27;20.10;52.70
58993;DHT22;44782;0.000;0.000;2024-02-26T05:43:43;20.10;52.70
58993;DHT22;44782;0.000;0.000;2024-02-26T05:45:58;20.10;52.70
58993;DHT22;44782;0.000;0.000;2024-02-26T05:48:14;20.10;52.80
58993;DHT22;44782;0.000;0.000;2024-02-26T05:50:29;20.10;52.80
58993;DHT22;44782;0.000;0.000;2024-02-26T05:52:45;20.00;52.80
58993;DHT22;44782;0.000;0.000;2024-02-26T05:55:01;20.00;52.80
58993;DHT22;44782;0.000;0.000;2024-02-26T05:57:16;20.00;52.80
58993;DHT22;44782;0.000;0.000;2024-02-26T05:59:33;19.90;52.80
58993;DHT22;44782;0.000;0.000;2024-02-26T06:01:49;19.90;53.00
58993;DHT22;44782;0.000;0.000;2024-02-26T06:04:05;19.90;53.20
58993;DHT22;44782;0.000;0.000;2024-02-26T06:06:20;19.80;53.30
58993;DHT22;44782;0.000;0.000;2024-02-26T06:08:38;19.80;53.30
58993;DHT22;44782;0.000;0.000;2024-02-26T06:10:54;19.80;53.40
58993;DHT22;44782;0.000;0.000;2024-02-26T06:13:09;19.80;53.30
58993;DHT22;44782;0.000;0.000;2024-02-26T06:15:25;19.70;53.50
58993;DHT22;44782;0.000;0.000;2024-02-26T06:17:40;19.70;53.40
58993;DHT22;44782;0.000;0.000;2024-02-26T06:19:56;19.70;53.40
58993;DHT22;44782;0.000;0.000;2024-02-26T06:22:12;19.60;53.30
58993;DHT22;44782;0.000;0.000;2024-02-26T06:24:27;19.60;53.10
58993;DHT22;44782;0.000;0.000;2024-02-26T06:26:43;19.60;53.10
58993;DHT22;44782;0.000;0.000;2024-02-26T06:28:59;19.60;53.60
58993;DHT22;44782;0.000;0.000;2024-02-26T06:31:14;19.60;53.90
58993;DHT22;44782;0.000;0.000;2024-02-26T06:33:30;19.60;53.70
58993;DHT22;44782;0.000;0.000;2024-02-26T06:35:45;19.50;53.50
58993;DHT22;44782;0.000;0.000;2024-02-26T06:38:01;19.50;53.50
58993;DHT22;44782;0.000;0.000;2024-02-26T06:40:17;19.50;53.50
58993;DHT22;44782;0.000;0.000;2024-02-26T06:42:33;19.50;53.40
58993;DHT22;44782;0.000;0.000;2024-02-26T06:44:48;19.40;53.10
58993;DHT22;44782;0.000;0.000;2024-02-26T06:47:04;19.40;53.30
58993;DHT22;44782;0.000;0.000;2024-02-26T06:49:20;19.40;53.20
58993;DHT22;44782;0.000;0.000;2024-02-26T06:51:35;19.40;53.20
58993;DHT22;44782;0.000;0.000;2024-02-26T06:53:51;19.40;53.10
58993;DHT22;44782;0.000;0.000;2024-02-26T06:56:07;19.30;52.90
58993;DHT22;44782;0.000;0.000;2024-02-26T06:58:22;19.30;52.90
58993;DHT22;44782;0.000;0.000;2024-02-26T07:00:38;19.30;53.10
58993;DHT22;44782;0.000;0.000;2024-02-26T07:02:53;19.30;52.80
58993;DHT22;44782;0.000;0.000;2024-02-26T07:05:09;19.30;53.30
58993;DHT22;44782;0.000;0.000;2024-02-26T07:07:25;19.20;53.00
58993;DHT22;44782;0.000;0.000;2024-02-26T07:09:42;19.20;53.10
58993;DHT22;44782;0.000;0.000;2024-02-26T07:11:58;19.20;53.20
58993;DHT22;44782;0.000;0.000;2024-02-26T07:14:13;19.20;53.30
58993;DHT22;44782;0.000;0.000;2024-02-26T07:16:29;19.20;53.30
58993;DHT22;44782;0.000;0.000;2024-02-26T07:18:45;19.20;53.40
58993;DHT22;44782;0.000;0.000;2024-02-26T07:21:03;19.10;53.50
58993;DHT22;44782;0.000;0.000;2024-02-26T07:23:19;19.10;53.40
58993;DHT22;44782;0.000;0.000;2024-02-26T07:25:35;19.10;53.60
58993;DHT22;44782;0.000;0.000;2024-02-26T07:27:51;19.10;53.70
58993;DHT22;44782;0.000;0.000;2024-02-26T07:30:07;19.10;53.70
58993;DHT22;44782;0.000;0.000;2024-02-26T07:32:27;19.10;53.70
58993;DHT22;44782;0.000;0.000;2024-02-26T07:34:42;19.10;53.60
58993;DHT22;44782;0.000;0.000;2024-02-26T07:37:00;19.00;53.60
58993;DHT22;44782;0.000;0.000;2024-02-26T07:39:15;19.00;53.70
58993;DHT22;44782;0.000;0.000;2024-02-26T07:41:31;19.00;53.80
58993;DHT22;44782;0.000;0.000;2024-02-26T07:43:46;19.00;53.90
58993;DHT22;44782;0.000;0.000;2024-02-26T07:46:02;19.00;53.80
58993;DHT22;44782;0.000;0.000;2024-02-26T07:48:18;19.00;54.10
58993;DHT22;44782;0.000;0.000;2024-02-26T07:50:33;19.00;54.10
58993;DHT22;44782;0.000;0.000;2024-02-26T07:52:49;19.00;54.40
58993;DHT22;44782;0.000;0.000;2024-02-26T07:55:07;18.90;54.60
58993;DHT22;44782;0.000;0.000;2024-02-26T07:57:22;18.90;54.80
58993;DHT22;44782;0.000;0.000;2024-02-26T07:59:40;18.90;54.80
58993;DHT22;44782;0.000;0.000;2024-02-26T08:01:56;18.90;55.00
58993;DHT22;44782;0.000;0.000;2024-02-26T08:04:11;18.90;55.00
58993;DHT22;44782;0.000;0.000;2024-02-26T08:06:27;18.90;55.00
58993;DHT22;44782;0.000;0.000;2024-02-26T08:08:43;18.90;55.10
58993;DHT22;44782;0.000;0.000;2024-02-26T08:10:59;18.90;55.00
58993;DHT22;44782;0.000;0.000;2024-02-26T08:13:15;18.80;55.20
58993;DHT22;44782;0.000;0.000;2024-02-26T08:15:34;18.80;55.20
58993;DHT22;44782;0.000;0.000;2024-02-26T08:17:50;18.80;55.30
58993;DHT22;44782;0.000;0.000;2024-02-26T08:20:06;18.80;55.20
58993;DHT22;44782;0.000;0.000;2024-02-26T08:22:21;18.80;55.20
58993;DHT22;44782;0.000;0.000;2024-02-26T08:24:37;18.80;55.40
58993;DHT22;44782;0.000;0.000;2024-02-26T08:26:53;18.70;55.20
58993;DHT22;44782;0.000;0.000;2024-02-26T08:29:08;18.70;55.40
58993;DHT22;44782;0.000;0.000;2024-02-26T08:31:24;18.70;55.40
58993;DHT22;44782;0.000;0.000;2024-02-26T08:33:40;18.70;55.60
58993;DHT22;44782;0.000;0.000;2024-02-26T08:35:56;18.70;55.70
58993;DHT22;44782;0.000;0.000;2024-02-26T08:38:12;18.70;55.50
58993;DHT22;44782;0.000;0.000;2024-02-26T08:40:27;18.70;55.60
58993;DHT22;44782;0.000;0.000;2024-02-26T08:42:43;18.60;55.60
58993;DHT22;44782;0.000;0.000;2024-02-26T08:44:59;18.60;55.70
58993;DHT22;44782;0.000;0.000;2024-02-26T08:47:16;18.60;55.80
58993;DHT22;44782;0.000;0.000;2024-02-26T08:49:32;18.60;55.80
58993;DHT22;44782;0.000;0.000;2024-02-26T08:51:48;18.60;55.80
58993;DHT22;44782;0.000;0.000;2024-02-26T08:54:04;18.60;55.80
58993;DHT22;44782;0.000;0.000;2024-02-26T08:56:20;18.60;55.90
58993;DHT22;44782;0.000;0.000;2024-02-26T08:58:36;18.60;55.90
58993;DHT22;44782;0.000;0.000;2024-02-26T09:00:52;18.60;56.00
58993;DHT22;44782;0.000;0.000;2024-02-26T09:03:07;18.50;55.90
58993;DHT22;44782;0.000;0.000;2024-02-26T09:05:23;18.50;55.80
58993;DHT22;44782;0.000;0.000;2024-02-26T09:07:39;18.50;56.10
58993;DHT22;44782;0.000;0.000;2024-02-26T09:09:54;18.50;55.60
58993;DHT22;44782;0.000;0.000;2024-02-26T09:12:10;18.50;55.70
58993;DHT22;44782;0.000;0.000;2024-02-26T09:14:26;18.50;55.70
58993;DHT22;44782;0.000;0.000;2024-02-26T09:16:41;18.50;56.00
58993;DHT22;44782;0.000;0.000;2024-02-26T09:18:57;18.40;56.00
58993;DHT22;44782;0.000;0.000;2024-02-26T09:21:13;18.50;56.20
58993;DHT22;44782;0.000;0.000;2024-02-26T09:23:28;18.40;56.10
58993;DHT22;44782;0.000;0.000;2024-02-26T09:25:44;18.40;56.20
58993;DHT22;44782;0.000;0.000;2024-02-26T09:27:59;18.40;56.20
58993;DHT22;44782;0.000;0.000;2024-02-26T09:30:17;18.40;56.20
58993;DHT22;44782;0.000;0.000;2024-02-26T09:32:34;18.40;56.10
58993;DHT22;44782;0.000;0.000;2024-02-26T09:34:49;18.30;56.20
58993;DHT22;44782;0.000;0.000;2024-02-26T09:37:05;18.30;56.20
58993;DHT22;44782;0.000;0.000;2024-02-26T09:39:21;18.30;56.20
58993;DHT22;44782;0.000;0.000;2024-02-26T09:41:37;18.30;56.30
58993;DHT22;44782;0.000;0.000;2024-02-26T09:43:56;18.30;56.30
58993;DHT22;44782;0.000;0.000;2024-02-26T09:46:12;18.30;56.30
58993;DHT22;44782;0.000;0.000;2024-02-26T09:48:29;18.30;56.30
58993;DHT22;44782;0.000;0.000;2024-02-26T09:50:46;18.30;56.30
58993;DHT22;44782;0.000;0.000;2024-02-26T09:53:02;18.30;56.30
58993;DHT22;44782;0.000;0.000;2024-02-26T09:55:20;18.30;56.30
58993;DHT22;44782;0.000;0.000;2024-02-26T09:57:44;18.30;56.10
58993;DHT22;44782;0.000;0.000;2024-02-26T10:00:03;18.30;56.10
58993;DHT22;44782;0.000;0.000;2024-02-26T10:02:23;18.20;56.00
58993;DHT22;44782;0.000;0.000;2024-02-26T10:04:43;18.20;56.00
58993;DHT22;44782;0.000;0.000;2024-02-26T10:06:58;18.20;56.00
58993;DHT22;44782;0.000;0.000;2024-02-26T10:09:16;18.20;56.30
58993;DHT22;44782;0.000;0.000;2024-02-26T10:11:33;18.20;56.30
58993;DHT22;44782;0.000;0.000;2024-02-26T10:13:49;18.20;56.30
58993;DHT22;44782;0.000;0.000;2024-02-26T10:16:05;18.20;56.10
58993;DHT22;44782;0.000;0.000;2024-02-26T10:18:23;18.20;56.20
58993;DHT22;44782;0.000;0.000;2024-02-26T10:20:39;18.10;56.20
58993;DHT22;44782;0.000;0.000;2024-02-26T10:22:55;18.10;56.10
58993;DHT22;44782;0.000;0.000;2024-02-26T10:25:10;18.10;56.10
58993;DHT22;44782;0.000;0.000;2024-02-26T10:27:28;18.10;56.10
58993;DHT22;44782;0.000;0.000;2024-02-26T10:29:44;18.10;56.00
58993;DHT22;44782;0.000;0.000;2024-02-26T10:32:02;18.10;55.90
58993;DHT22;44782;0.000;0.000;2024-02-26T10:34:18;18.10;55.90
58993;DHT22;44782;0.000;0.000;2024-02-26T10:36:34;18.10;55.90
58993;DHT22;44782;0.000;0.000;2024-02-26T10:38:50;18.10;55.70
58993;DHT22;44782;0.000;0.000;2024-02-26T10:41:06;18.10;55.60
58993;DHT22;44782;0.000;0.000;2024-02-26T10:43:22;18.00;55.80
58993;DHT22;44782;0.000;0.000;2024-02-26T10:45:38;18.10;56.00
58993;DHT22;44782;0.000;0.000;2024-02-26T10:47:57;18.00;55.90
58993;DHT22;44782;0.000;0.000;2024-02-26T10:50:13;18.00;55.70
58993;DHT22;44782;0.000;0.000;2024-02-26T10:52:35;18.00;56.00
58993;DHT22;44782;0.000;0.000;2024-02-26T10:54:56;18.00;56.00
58993;DHT22;44782;0.000;0.000;2024-02-26T10:57:13;18.00;56.10
58993;DHT22;44782;0.000;0.000;2024-02-26T10:59:32;18.00;56.00
58993;DHT22;44782;0.000;0.000;2024-02-26T11:01:48;17.90;55.90
58993;DHT22;44782;0.000;0.000;2024-02-26T11:04:05;18.00;55.60
58993;DHT22;44782;0.000;0.000;2024-02-26T11:06:21;17.90;55.80
58993;DHT22;44782;0.000;0.000;2024-02-26T11:08:37;17.90;55.80
58993;DHT22;44782;0.000;0.000;2024-02-26T11:10:53;17.90;55.90
58993;DHT22;44782;0.000;0.000;2024-02-26T11:13:12;17.90;55.90
58993;DHT22;44782;0.000;0.000;2024-02-26T11:15:29;17.90;55.90
58993;DHT22;44782;0.000;0.000;2024-02-26T11:17:47;17.90;55.60
58993;DHT22;44782;0.000;0.000;2024-02-26T11:20:04;18.00;55.50
58993;DHT22;44782;0.000;0.000;2024-02-26T11:22:20;17.90;55.70
58993;DHT22;44782;0.000;0.000;2024-02-26T11:24:45;18.00;55.50
58993;DHT22;44782;0.000;0.000;2024-02-26T11:27:04;17.90;55.30
58993;DHT22;44782;0.000;0.000;2024-02-26T11:29:22;17.90;55.30
58993;DHT22;44782;0.000;0.000;2024-02-26T11:31:39;17.90;55.40
58993;DHT22;44782;0.000;0.000;2024-02-26T11:33:56;17.90;55.20
58993;DHT22;44782;0.000;0.000;2024-02-26T11:36:12;17.90;55.20
58993;DHT22;44782;0.000;0.000;2024-02-26T11:38:29;17.90;55.20
58993;DHT22;44782;0.000;0.000;2024-02-26T11:40:45;17.90;55.10
58993;DHT22;44782;0.000;0.000;2024-02-26T11:43:01;17.90;55.10
58993;DHT22;44782;0.000;0.000;2024-02-26T11:48:04;17.90;54.70
58993;DHT22;44782;0.000;0.000;2024-02-26T11:50:36;17.90;56.00
58993;DHT22;44782;0.000;0.000;2024-02-26T11:53:45;17.90;55.20
58993;DHT22;44782;0.000;0.000;2024-02-26T11:58:42;17.90;55.40
58993;DHT22;44782;0.000;0.000;2024-02-26T12:00:58;17.90;55.80
58993;DHT22;44782;0.000;0.000;2024-02-26T12:03:13;17.90;55.60
58993;DHT22;44782;0.000;0.000;2024-02-26T12:05:34;17.90;55.90
58993;DHT22;44782;0.000;0.000;2024-02-26T12:08:03;17.90;55.80
58993;DHT22;44782;0.000;0.000;2024-02-26T12:10:28;17.90;55.60
58993;DHT22;44782;0.000;0.000;2024-02-26T12:12:49;17.90;55.70
58993;DHT22;44782;0.000;0.000;2024-02-26T12:15:05;17.90;55.60
58993;DHT22;44782;0.000;0.000;2024-02-26T12:17:24;17.90;55.50
58993;DHT22;44782;0.000;0.000;2024-02-26T12:19:40;17.90;55.70
58993;DHT22;44782;0.000;0.000;2024-02-26T12:21:56;17.90;55.50
58993;DHT22;44782;0.000;0.000;2024-02-26T12:24:13;17.90;55.60
58993;DHT22;44782;0.000;0.000;2024-02-26T12:26:29;17.90;55.40
58993;DHT22;44782;0.000;0.000;2024-02-26T12:28:46;17.90;55.30
58993;DHT22;44782;0.000;0.000;2024-02-26T12:31:02;17.90;55.30
58993;DHT22;44782;0.000;0.000;2024-02-26T12:33:19;17.90;55.40
58993;DHT22;44782;0.000;0.000;2024-02-26T12:35:35;17.90;55.50
58993;DHT22;44782;0.000;0.000;2024-02-26T12:37:55;17.90;55.40
58993;DHT22;44782;0.000;0.000;2024-02-26T12:40:11;17.90;55.50
58993;DHT22;44782;0.000;0.000;2024-02-26T12:42:27;17.90;55.50
58993;DHT22;44782;0.000;0.000;2024-02-26T12:44:45;17.90;55.60
58993;DHT22;44782;0.000;0.000;2024-02-26T12:47:02;17.90;55.60
58993;DHT22;44782;0.000;0.000;2024-02-26T12:49:21;17.90;55.50
58993;DHT22;44782;0.000;0.000;2024-02-26T12:51:37;17.90;55.60
58993;DHT22;44782;0.000;0.000;2024-02-26T12:53:54;17.90;55.50
58993;DHT22;44782;0.000;0.000;2024-02-26T12:56:11;17.90;55.60
58993;DHT22;44782;0.000;0.000;2024-02-26T12:58:31;17.90;55.60
58993;DHT22;44782;0.000;0.000;2024-02-26T13:00:47;17.90;55.60
58993;DHT22;44782;0.000;0.000;2024-02-26T13:03:04;17.90;55.90
58993;DHT22;44782;0.000;0.000;2024-02-26T13:05:20;17.90;55.30
58993;DHT22;44782;0.000;0.000;2024-02-26T13:07:44;17.90;55.50
58993;DHT22;44782;0.000;0.000;2024-02-26T13:10:00;17.90;55.50
58993;DHT22;44782;0.000;0.000;2024-02-26T13:12:16;17.80;55.40
58993;DHT22;44782;0.000;0.000;2024-02-26T13:14:32;17.80;55.50
58993;DHT22;44782;0.000;0.000;2024-02-26T13:16:58;17.80;55.50
58993;DHT22;44782;0.000;0.000;2024-02-26T13:19:14;17.80;55.50
58993;DHT22;44782;0.000;0.000;2024-02-26T13:21:29;17.80;55.60
58993;DHT22;44782;0.000;0.000;2024-02-26T13:23:49;17.70;55.60
58993;DHT22;44782;0.000;0.000;2024-02-26T13:26:06;17.70;55.40
58993;DHT22;44782;0.000;0.000;2024-02-26T13:28:21;17.70;55.50
58993;DHT22;44782;0.000;0.000;2024-02-26T13:30:39;17.70;55.60
58993;DHT22;44782;0.000;0.000;2024-02-26T13:32:55;17.70;55.60
58993;DHT22;44782;0.000;0.000;2024-02-26T13:35:12;17.70;55.50
58993;DHT22;44782;0.000;0.000;2024-02-26T13:37:28;17.70;55.50
58993;DHT22;44782;0.000;0.000;2024-02-26T13:39:43;17.60;55.50
58993;DHT22;44782;0.000;0.000;2024-02-26T13:41:59;17.70;55.30
58993;DHT22;44782;0.000;0.000;2024-02-26T13:44:14;17.60;55.40
58993;DHT22;44782;0.000;0.000;2024-02-26T13:46:30;17.60;55.40
58993;DHT22;44782;0.000;0.000;2024-02-26T13:48:45;17.60;55.40
58993;DHT22;44782;0.000;0.000;2024-02-26T13:51:01;17.60;55.60
58993;DHT22;44782;0.000;0.000;2024-02-26T13:53:17;17.60;55.60
58993;DHT22;44782;0.000;0.000;2024-02-26T13:55:33;17.60;55.50
58993;DHT22;44782;0.000;0.000;2024-02-26T13:57:48;17.60;55.60
58993;DHT22;44782;0.000;0.000;2024-02-26T14:00:05;17.50;55.60
58993;DHT22;44782;0.000;0.000;2024-02-26T14:02:21;17.50;55.50
58993;DHT22;44782;0.000;0.000;2024-02-26T14:04:37;17.50;56.20
58993;DHT22;44782;0.000;0.000;2024-02-26T14:06:53;17.50;55.50
58993;DHT22;44782;0.000;0.000;2024-02-26T14:09:09;17.50;55.40
58993;DHT22;44782;0.000;0.000;2024-02-26T14:11:25;17.50;55.50
58993;DHT22;44782;0.000;0.000;2024-02-26T14:13:41;17.50;55.40
58993;DHT22;44782;0.000;0.000;2024-02-26T14:15:57;17.50;55.50
58993;DHT22;44782;0.000;0.000;2024-02-26T14:18:12;17.40;55.50
58993;DHT22;44782;0.000;0.000;2024-02-26T14:20:28;17.40;55.40
58993;DHT22;44782;0.000;0.000;2024-02-26T14:22:44;17.40;55.40
58993;DHT22;44782;0.000;0.000;2024-02-26T14:25:00;17.40;55.40
58993;DHT22;44782;0.000;0.000;2024-02-26T14:27:15;17.40;55.30
58993;DHT22;44782;0.000;0.000;2024-02-26T14:29:32;17.40;55.40
58993;DHT22;44782;0.000;0.000;2024-02-26T14:31:48;17.40;55.20
58993;DHT22;44782;0.000;0.000;2024-02-26T14:34:03;17.40;55.30
58993;DHT22;44782;0.000;0.000;2024-02-26T14:36:20;17.40;55.40
58993;DHT22;44782;0.000;0.000;2024-02-26T14:38:36;17.40;55.50
58993;DHT22;44782;0.000;0.000;2024-02-26T14:40:52;17.30;55.40